createdAt,value
2019-05-07T00:03:12.384Z,99.90
2019-05-07T00:07:18.446Z,99.90
2019-05-07T00:11:24.429Z,99.90
2019-05-07T00:15:32.560Z,99.90
2019-05-07T00:19:37.991Z,99.90
2019-05-07T00:23:43.957Z,99.90
2019-05-07T00:27:52.330Z,99.90
2019-05-07T00:31:58.438Z,99.90
2019-05-07T00:36:12.553Z,99.90
2019-05-07T00:40:22.959Z,99.90
2019-05-07T00:44:29.403Z,99.90
2019-05-07T00:48:35.338Z,99.90
2019-05-07T00:52:42.990Z,99.90
2019-05-07T00:56:52.066Z,99.90
2019-05-07T01:00:57.820Z,99.90
2019-05-07T01:05:03.854Z,99.90
2019-05-07T01:09:12.311Z,99.90
2019-05-07T01:13:18.443Z,99.90
2019-05-07T01:17:24.437Z,99.90
2019-05-07T01:21:32.363Z,99.90
2019-05-07T01:25:37.996Z,99.90
2019-05-07T01:29:44.082Z,99.90
2019-05-07T01:33:54.782Z,99.90
2019-05-07T01:38:03.005Z,99.90
2019-05-07T01:42:09.005Z,99.90
2019-05-07T01:46:14.969Z,99.90
2019-05-07T01:50:22.742Z,99.90
2019-05-07T01:54:28.783Z,99.90
2019-05-07T01:58:34.772Z,99.90
2019-05-07T02:02:52.049Z,99.90
2019-05-07T02:07:16.216Z,99.90
2019-05-07T02:11:35.797Z,99.90
2019-05-07T02:15:42.760Z,99.90
2019-05-07T02:19:49.347Z,99.90
2019-05-07T02:23:56.457Z,99.90
2019-05-07T02:28:02.458Z,99.90
2019-05-07T02:32:08.480Z,99.90
2019-05-07T02:36:14.524Z,99.90
2019-05-07T02:40:23.097Z,99.90
2019-05-07T02:44:29.307Z,99.90
2019-05-07T02:48:37.386Z,99.90
2019-05-07T02:52:53.764Z,99.90
2019-05-07T02:56:58.442Z,99.90
2019-05-07T03:01:05.145Z,99.90
2019-05-07T03:05:13.700Z,99.90
2019-05-07T03:09:19.054Z,99.90
2019-05-07T03:13:25.125Z,99.90
2019-05-07T03:17:33.401Z,99.90
2019-05-07T03:21:54.630Z,99.90
2019-05-07T03:26:05.827Z,99.90
2019-05-07T03:30:16.722Z,99.90
2019-05-07T03:34:36.978Z,99.90
2019-05-07T03:38:39.591Z,99.90
2019-05-07T03:42:45.546Z,99.90
2019-05-07T03:47:01.111Z,99.90
2019-05-07T03:50:59.321Z,99.90
2019-05-07T03:55:07.702Z,99.90
2019-05-07T03:59:13.742Z,99.90
2019-05-07T04:03:24.127Z,99.90
2019-05-07T04:07:27.342Z,99.90
2019-05-07T04:11:33.807Z,99.90
2019-05-07T04:15:43.461Z,99.90
2019-05-07T04:19:47.463Z,99.90
2019-05-07T04:23:55.137Z,99.90
2019-05-07T04:28:05.924Z,99.90
2019-05-07T04:32:14.335Z,99.90
2019-05-07T04:36:23.093Z,99.90
2019-05-07T04:40:29.360Z,99.90
2019-05-07T04:44:35.351Z,99.90
2019-05-07T04:48:43.999Z,99.90
2019-05-07T04:52:49.875Z,99.90
2019-05-07T04:56:55.845Z,99.90
2019-05-07T05:01:03.268Z,99.90
2019-05-07T05:05:12.716Z,99.90
2019-05-07T05:09:17.584Z,99.90
2019-05-07T05:13:24.024Z,99.90
2019-05-07T05:17:31.979Z,99.90
2019-05-07T05:21:52.874Z,99.90
2019-05-07T05:26:01.885Z,99.90
2019-05-07T05:30:12.467Z,99.90
2019-05-07T05:34:18.429Z,99.90
2019-05-07T05:38:24.389Z,99.90
2019-05-07T05:42:48.681Z,99.90
2019-05-07T05:46:54.658Z,99.90
2019-05-07T05:51:18.440Z,99.90
2019-05-07T05:55:24.622Z,99.90
2019-05-07T05:59:48.211Z,99.90
2019-05-07T06:03:43.066Z,99.90
2019-05-07T06:07:52.095Z,99.90
2019-05-07T06:12:12.687Z,99.40
2019-05-07T06:16:22.047Z,98.70
2019-05-07T06:20:32.877Z,98.40
2019-05-07T06:24:42.670Z,97.90
2019-05-07T06:28:48.701Z,97.90
2019-05-07T06:32:54.954Z,97.10
2019-05-07T06:37:02.343Z,97.00
2019-05-07T06:41:13.285Z,96.20
2019-05-07T06:45:22.771Z,95.90
2019-05-07T06:49:29.239Z,94.90
2019-05-07T06:53:35.497Z,94.60
2019-05-07T06:57:42.556Z,94.40
2019-05-07T07:01:56.797Z,94.30
2019-05-07T07:06:04.990Z,93.50
2019-05-07T07:10:15.741Z,92.40
2019-05-07T07:14:22.737Z,91.40
2019-05-07T07:18:29.173Z,87.50
2019-05-07T07:22:35.502Z,77.30
2019-05-07T07:26:42.295Z,61.60
2019-05-07T07:30:53.121Z,43.50
2019-05-07T07:34:59.386Z,37.10
2019-05-07T07:39:07.911Z,31.30
2019-05-07T07:43:14.173Z,33.20
2019-05-07T07:47:22.343Z,36.00
2019-05-07T07:51:38.880Z,39.10
2019-05-07T07:55:38.009Z,37.10
2019-05-07T07:59:48.974Z,37.40
2019-05-07T08:03:55.234Z,41.70
2019-05-07T08:08:02.277Z,48.00
2019-05-07T08:12:08.831Z,55.20
2019-05-07T08:16:15.139Z,63.90
2019-05-07T08:20:22.293Z,70.20
2019-05-07T08:24:28.703Z,74.50
2019-05-07T08:28:34.961Z,77.60
2019-05-07T08:32:49.806Z,79.60
2019-05-07T08:36:56.896Z,81.50
2019-05-07T08:41:03.891Z,83.80
2019-05-07T08:45:28.387Z,88.30
2019-05-07T08:49:39.852Z,90.00
2019-05-07T08:53:44.122Z,91.30
2019-05-07T08:57:52.108Z,93.90
2019-05-07T09:01:59.250Z,96.80
2019-05-07T09:06:05.478Z,95.90
2019-05-07T09:10:12.628Z,93.00
2019-05-07T09:14:19.527Z,90.40
2019-05-07T09:18:25.785Z,80.70
2019-05-07T09:22:32.435Z,71.90
2019-05-07T09:26:43.594Z,68.70
2019-05-07T09:30:52.468Z,70.90
2019-05-07T09:35:02.258Z,76.90
2019-05-07T09:39:08.467Z,76.70
2019-05-07T09:43:14.771Z,56.70
2019-05-07T09:47:21.923Z,46.00
2019-05-07T09:51:28.426Z,44.20
2019-05-07T09:55:34.690Z,47.80
2019-05-07T09:59:42.602Z,46.90
2019-05-07T10:03:49.070Z,47.00
2019-05-07T10:07:55.389Z,46.70
2019-05-07T10:12:15.067Z,42.30
2019-05-07T10:16:25.924Z,42.80
2019-05-07T10:20:32.830Z,43.40
2019-05-07T10:24:41.774Z,40.50
2019-05-07T10:28:47.642Z,38.50
2019-05-07T10:32:54.007Z,41.60
2019-05-07T10:37:02.572Z,46.40
2019-05-07T10:41:12.153Z,48.30
2019-05-07T10:45:25.963Z,44.50
2019-05-07T10:49:42.101Z,40.90
2019-05-07T10:53:47.797Z,35.30
2019-05-07T10:57:54.160Z,32.90
2019-05-07T11:02:05.270Z,31.40
2019-05-07T11:06:12.091Z,33.20
2019-05-07T11:10:19.034Z,38.00
2019-05-07T11:14:29.122Z,37.00
2019-05-07T11:18:37.417Z,33.20
2019-05-07T11:22:44.407Z,32.60
2019-05-07T11:26:53.119Z,33.40
2019-05-07T11:30:59.497Z,36.30
2019-05-07T11:35:07.546Z,37.80
2019-05-07T11:39:15.229Z,38.60
2019-05-07T11:43:34.116Z,39.90
2019-05-07T11:47:40.805Z,42.20
2019-05-07T11:52:03.937Z,42.50
2019-05-07T11:56:11.738Z,42.90
2019-05-07T12:00:38.328Z,45.70
2019-05-07T12:04:44.581Z,46.50
2019-05-07T12:08:52.170Z,48.00
2019-05-07T12:12:58.842Z,50.80
2019-05-07T12:17:05.290Z,53.30
2019-05-07T12:21:20.728Z,51.60
2019-05-07T12:25:20.566Z,51.70
2019-05-07T12:29:27.745Z,52.40
2019-05-07T12:33:52.177Z,50.10
2019-05-07T12:37:58.774Z,49.70
2019-05-07T12:42:08.579Z,51.20
2019-05-07T12:46:16.514Z,50.30
2019-05-07T12:50:22.777Z,48.80
2019-05-07T12:54:41.928Z,46.60
2019-05-07T12:58:47.634Z,48.10
2019-05-07T13:03:12.751Z,49.10
2019-05-07T13:07:22.005Z,49.30
2019-05-07T13:11:29.196Z,52.30
2019-05-07T13:15:35.449Z,54.10
2019-05-07T13:19:42.067Z,54.50
2019-05-07T13:23:48.381Z,57.20
2019-05-07T13:27:54.648Z,56.20
2019-05-07T13:32:03.011Z,55.10
2019-05-07T13:36:09.623Z,51.60
2019-05-07T13:40:23.826Z,50.90
2019-05-07T13:44:43.754Z,48.50
2019-05-07T13:48:50.594Z,49.40
2019-05-07T13:52:57.174Z,50.60
2019-05-07T13:57:03.390Z,51.40
2019-05-07T14:01:22.834Z,51.30
2019-05-07T14:05:28.485Z,52.40
2019-05-07T14:09:34.789Z,50.20
2019-05-07T14:13:43.433Z,47.80
2019-05-07T14:17:49.097Z,50.00
2019-05-07T14:21:55.534Z,51.10
2019-05-07T14:26:02.045Z,52.30
2019-05-07T14:30:09.657Z,52.10
2019-05-07T14:34:23.678Z,52.30
2019-05-07T14:38:34.361Z,51.60
2019-05-07T14:42:48.274Z,49.40
2019-05-07T14:46:54.617Z,51.70
2019-05-07T14:51:02.201Z,53.00
2019-05-07T14:55:08.957Z,56.70
2019-05-07T14:59:15.373Z,55.80
2019-05-07T15:03:22.833Z,53.60
2019-05-07T15:07:29.263Z,53.30
2019-05-07T15:11:35.852Z,53.70
2019-05-07T15:15:42.089Z,50.90
2019-05-07T15:19:48.374Z,49.10
2019-05-07T15:23:55.406Z,50.40
2019-05-07T15:28:01.967Z,52.40
2019-05-07T15:32:10.114Z,53.30
2019-05-07T15:36:16.388Z,54.50
2019-05-07T15:40:22.714Z,53.50
2019-05-07T15:44:28.973Z,54.50
2019-05-07T15:48:35.292Z,55.10
2019-05-07T15:53:01.635Z,56.00
2019-05-07T15:57:09.279Z,56.50
2019-05-07T16:01:15.571Z,56.60
2019-05-07T16:05:22.462Z,58.30
2019-05-07T16:09:32.514Z,59.60
2019-05-07T16:13:42.634Z,61.10
2019-05-07T16:17:52.206Z,60.90
2019-05-07T16:22:03.633Z,62.50
2019-05-07T16:26:08.079Z,63.90
2019-05-07T16:30:15.134Z,66.50
2019-05-07T16:34:21.972Z,67.60
2019-05-07T16:38:29.292Z,68.30
2019-05-07T16:42:37.959Z,71.10
2019-05-07T16:46:43.514Z,68.90
2019-05-07T16:50:52.278Z,71.10
2019-05-07T16:54:59.828Z,71.30
2019-05-07T16:59:07.956Z,70.60
2019-05-07T17:03:15.862Z,70.50
2019-05-07T17:07:24.709Z,71.50
2019-05-07T17:11:31.857Z,72.40
2019-05-07T17:15:56.009Z,73.00
2019-05-07T17:20:02.936Z,74.30
2019-05-07T17:24:11.878Z,76.40
2019-05-07T17:28:19.729Z,78.80
2019-05-07T17:32:25.994Z,79.80
2019-05-07T17:36:33.365Z,80.00
2019-05-07T17:40:42.376Z,79.10
2019-05-07T17:44:55.794Z,78.40
2019-05-07T17:49:02.641Z,78.40
2019-05-07T17:53:08.990Z,80.00
2019-05-07T17:57:16.013Z,82.30
2019-05-07T18:01:23.969Z,84.20
2019-05-07T18:05:31.772Z,84.70
2019-05-07T18:09:38.234Z,86.80
2019-05-07T18:13:45.029Z,87.50
2019-05-07T18:17:52.928Z,87.20
2019-05-07T18:21:59.169Z,88.80
2019-05-07T18:26:06.088Z,88.90
2019-05-07T18:30:13.357Z,90.00
2019-05-07T18:34:19.609Z,89.40
2019-05-07T18:38:25.870Z,90.00
2019-05-07T18:42:32.884Z,90.10
2019-05-07T18:46:39.403Z,91.50
2019-05-07T18:50:47.977Z,91.00
2019-05-07T18:54:54.348Z,91.10
2019-05-07T18:59:02.138Z,91.50
2019-05-07T19:03:08.722Z,91.90
2019-05-07T19:07:15.130Z,92.30
2019-05-07T19:11:22.826Z,92.70
2019-05-07T19:15:29.276Z,92.90
2019-05-07T19:19:35.538Z,93.20
2019-05-07T19:23:45.377Z,93.80
2019-05-07T19:27:52.628Z,93.40
2019-05-07T19:31:59.117Z,93.70
2019-05-07T19:36:05.409Z,93.20
2019-05-07T19:40:13.559Z,93.30
2019-05-07T19:44:19.814Z,93.60
2019-05-07T19:48:26.087Z,93.80
2019-05-07T19:52:33.156Z,93.50
2019-05-07T19:56:42.561Z,93.50
2019-05-07T20:00:48.681Z,94.00
2019-05-07T20:04:54.944Z,94.80
2019-05-07T20:09:09.813Z,95.10
2019-05-07T20:13:12.428Z,95.60
2019-05-07T20:17:21.715Z,96.10
2019-05-07T20:21:27.646Z,96.20
2019-05-07T20:25:33.974Z,96.30
2019-05-07T20:29:40.307Z,96.30
2019-05-07T20:33:46.541Z,96.60
2019-05-07T20:37:53.070Z,96.70
2019-05-07T20:41:59.414Z,96.60
2019-05-07T20:46:06.185Z,96.50
2019-05-07T20:50:12.887Z,96.40
2019-05-07T20:54:22.911Z,96.70
2019-05-07T20:58:32.776Z,96.70
2019-05-07T21:02:47.178Z,97.00
2019-05-07T21:06:48.621Z,96.90
2019-05-07T21:10:56.048Z,97.00
2019-05-07T21:15:03.406Z,97.00
2019-05-07T21:19:09.844Z,97.20
2019-05-07T21:23:16.106Z,97.20
2019-05-07T21:27:22.376Z,97.60
2019-05-07T21:31:28.667Z,97.10
2019-05-07T21:35:34.890Z,97.40
2019-05-07T21:39:42.375Z,97.50
2019-05-07T21:43:49.086Z,97.60
2019-05-07T21:47:56.479Z,97.30
2019-05-07T21:52:02.757Z,97.60
2019-05-07T21:56:22.860Z,97.10
2019-05-07T22:00:33.593Z,97.50
2019-05-07T22:04:42.249Z,97.50
2019-05-07T22:08:48.497Z,97.70
2019-05-07T22:12:54.822Z,97.20
2019-05-07T22:17:02.423Z,97.50
2019-05-07T22:21:08.766Z,97.20
2019-05-07T22:25:15.014Z,97.30
2019-05-07T22:29:22.920Z,97.60
2019-05-07T22:33:36.257Z,97.50
2019-05-07T22:37:45.209Z,97.70
2019-05-07T22:41:55.607Z,98.10
2019-05-07T22:46:02.511Z,98.30
2019-05-07T22:50:09.065Z,98.60
2019-05-07T22:54:15.479Z,98.80
2019-05-07T22:58:23.371Z,99.00
2019-05-07T23:02:29.318Z,99.10
2019-05-07T23:06:35.302Z,99.50
2019-05-07T23:10:42.151Z,99.70
2019-05-07T23:14:49.191Z,99.90
2019-05-07T23:18:55.165Z,99.90
2019-05-07T23:23:01.618Z,99.90
2019-05-07T23:27:08.558Z,99.90
2019-05-07T23:31:14.538Z,99.90
2019-05-07T23:35:22.265Z,99.90
2019-05-07T23:39:31.030Z,99.90
2019-05-07T23:43:37.011Z,99.90
2019-05-07T23:47:44.673Z,99.90
2019-05-07T23:51:52.771Z,99.90
2019-05-07T23:55:58.352Z,99.90
